Terminal Aerodrome Forecast
Issued by NWS

Home | Current Version | Previous Version | Text Only | Print | Product List | Glossary Off
Versions: 1 2 3 4 5 6 7 8 9 10 11 12 13

652
FTUS42 KMHX 042338
TAFPGV
TAF
KPGV 042338Z 0500/0524 03009G15KT 5SM -RA OVC007
     FM050600 36015G22KT 5SM -RA OVC007
     FM051200 34015G22KT P6SM SCT007 OVC020
     FM051500 35015G20KT P6SM SCT035
      AMD LTD TO CLD VIS AND WIND=

USA.gov is the U.S. government's official web portal to all federal, state and local government web resources and services.